createdAt,value
2019-02-28T00:00:54.377Z,23.02
2019-02-28T00:03:26.110Z,28.73
2019-02-28T00:10:15.523Z,24.30
2019-02-28T00:12:48.076Z,26.48
2019-02-28T00:15:20.596Z,25.75
2019-02-28T00:17:51.751Z,25.17
2019-02-28T00:20:23.232Z,25.77
2019-02-28T00:22:54.244Z,26.33
2019-02-28T00:25:25.218Z,24.37
2019-02-28T00:28:17.773Z,26.68
2019-02-28T00:30:30.434Z,25.30
2019-02-28T00:33:02.091Z,25.05
2019-02-28T00:35:33.807Z,22.55
2019-02-28T00:38:04.408Z,23.40
2019-02-28T00:40:34.948Z,25.35
2019-02-28T00:43:05.648Z,25.60
2019-02-28T00:45:37.227Z,28.70
2019-02-28T00:48:08.068Z,28.00
2019-02-28T00:50:39.021Z,26.68
2019-02-28T00:53:09.859Z,32.40
2019-02-28T00:55:40.448Z,27.02
2019-02-28T00:58:11.148Z,24.02
2019-02-28T01:00:41.720Z,24.72
2019-02-28T01:03:12.555Z,24.57
2019-02-28T01:05:43.289Z,27.82
2019-02-28T01:08:13.821Z,24.30
2019-02-28T01:10:44.377Z,22.45
2019-02-28T01:13:15.192Z,23.42
2019-02-28T01:15:45.853Z,28.23
2019-02-28T01:18:16.488Z,22.93
2019-02-28T01:20:50.053Z,23.10
2019-02-28T01:23:19.587Z,20.85
2019-02-28T01:25:50.221Z,23.47
2019-02-28T01:28:23.466Z,23.80
2019-02-28T01:30:53.089Z,23.85
2019-02-28T01:33:25.004Z,21.23
2019-02-28T01:35:56.013Z,23.40
2019-02-28T01:38:26.572Z,24.10
2019-02-28T01:40:57.289Z,23.27
2019-02-28T01:43:28.948Z,23.12
2019-02-28T01:45:59.906Z,27.85
2019-02-28T01:48:30.697Z,23.30
2019-02-28T01:51:01.718Z,23.65
2019-02-28T01:53:32.389Z,24.15
2019-02-28T01:56:03.235Z,23.45
2019-02-28T01:58:33.885Z,21.27
2019-02-28T02:01:04.398Z,24.35
2019-02-28T02:03:36.918Z,24.37
2019-02-28T02:06:07.434Z,27.17
2019-02-28T02:08:38.464Z,24.10
2019-02-28T02:11:09.260Z,21.10
2019-02-28T02:13:39.844Z,21.68
2019-02-28T02:16:10.379Z,23.62
2019-02-28T02:18:46.723Z,21.80
2019-02-28T02:21:17.379Z,25.65
2019-02-28T02:23:49.565Z,24.30
2019-02-28T02:26:20.439Z,23.77
2019-02-28T02:28:50.934Z,26.00
2019-02-28T02:31:27.135Z,21.20
2019-02-28T02:33:53.587Z,25.82
2019-02-28T02:36:24.162Z,21.55
2019-02-28T02:38:54.889Z,22.95
2019-02-28T02:41:25.607Z,23.52
2019-02-28T02:43:56.128Z,27.62
2019-02-28T02:46:26.679Z,23.00
2019-02-28T02:48:57.391Z,25.05
2019-02-28T02:51:28.155Z,23.92
2019-02-28T02:53:58.787Z,25.95
2019-02-28T02:56:29.501Z,27.70
2019-02-28T02:59:01.990Z,23.73
2019-02-28T03:35:25.577Z,26.20
2019-02-28T03:38:02.073Z,25.10
2019-02-28T03:40:39.822Z,25.10
2019-02-28T03:43:06.782Z,23.22
2019-02-28T03:45:37.101Z,23.87
2019-02-28T03:48:07.874Z,28.32
2019-02-28T03:50:38.526Z,31.70
2019-02-28T03:53:09.224Z,28.65
2019-02-28T03:55:40.887Z,27.35
2019-02-28T03:58:13.601Z,27.80
2019-02-28T04:00:44.439Z,26.05
2019-02-28T04:03:15.175Z,27.20
2019-02-28T04:05:45.878Z,26.30
2019-02-28T04:08:16.630Z,25.50
2019-02-28T04:10:47.151Z,28.45
2019-02-28T04:13:19.253Z,26.55
2019-02-28T04:16:07.397Z,25.15
2019-02-28T04:18:22.101Z,24.77
2019-02-28T04:20:52.765Z,24.80
2019-02-28T04:23:23.300Z,23.38
2019-02-28T04:25:57.002Z,25.37
2019-02-28T04:28:26.217Z,27.07
2019-02-28T04:30:56.850Z,24.65
2019-02-28T04:33:27.645Z,25.35
2019-02-28T04:36:00.572Z,29.48
2019-02-28T04:38:31.120Z,23.45
2019-02-28T04:41:01.731Z,24.92
2019-02-28T04:43:32.162Z,24.70
2019-02-28T04:46:02.861Z,25.68
2019-02-28T04:48:33.429Z,25.37
2019-02-28T04:51:05.724Z,23.98
2019-02-28T04:53:36.084Z,27.70
2019-02-28T04:56:11.202Z,26.97
2019-02-28T04:58:38.585Z,23.50
2019-02-28T05:01:12.358Z,25.15
2019-02-28T05:03:41.329Z,25.02
2019-02-28T05:06:11.972Z,25.62
2019-02-28T05:08:42.737Z,25.52
2019-02-28T05:11:13.410Z,24.40
2019-02-28T05:13:48.202Z,24.87
2019-02-28T05:16:16.081Z,25.75
2019-02-28T05:18:51.471Z,27.05
2019-02-28T05:21:22.138Z,27.27
2019-02-28T05:23:52.704Z,24.43
2019-02-28T05:26:23.447Z,24.65
2019-02-28T05:28:55.397Z,27.58
2019-02-28T05:31:27.066Z,26.10
2019-02-28T05:33:58.037Z,28.32
2019-02-28T05:36:28.790Z,29.05
2019-02-28T05:39:00.017Z,29.42
2019-02-28T05:41:30.866Z,27.73
2019-02-28T05:44:03.326Z,29.05
2019-02-28T05:46:33.454Z,27.75
2019-02-28T05:49:04.119Z,25.02
2019-02-28T05:51:34.716Z,23.83
2019-02-28T05:54:05.234Z,23.87
2019-02-28T05:56:35.951Z,24.87
2019-02-28T05:59:06.609Z,25.88
2019-02-28T06:01:37.252Z,25.15
2019-02-28T06:04:08.048Z,27.50
2019-02-28T06:06:38.605Z,26.62
2019-02-28T06:09:10.423Z,24.75
2019-02-28T06:11:41.380Z,24.12
2019-02-28T06:14:12.059Z,26.17
2019-02-28T06:16:46.508Z,26.12
2019-02-28T06:19:14.892Z,30.00
2019-02-28T06:21:45.454Z,26.48
2019-02-28T06:24:16.025Z,24.20
2019-02-28T06:26:46.824Z,25.48
2019-02-28T06:29:17.397Z,26.57
2019-02-28T06:31:48.688Z,25.02
2019-02-28T06:34:20.379Z,26.02
2019-02-28T06:36:51.037Z,26.12
2019-02-28T06:39:22.512Z,26.50
2019-02-28T06:41:53.210Z,35.90
2019-02-28T06:44:24.257Z,29.48
2019-02-28T06:46:56.092Z,35.63
2019-02-28T06:49:26.625Z,26.12
2019-02-28T06:51:57.161Z,26.68
2019-02-28T06:54:51.746Z,30.62
2019-02-28T06:57:22.409Z,30.88
2019-02-28T06:59:53.048Z,28.02
2019-02-28T07:02:23.840Z,26.48
2019-02-28T07:04:54.505Z,26.93
2019-02-28T07:07:25.145Z,25.23
2019-02-28T07:09:55.847Z,27.52
2019-02-28T07:12:29.615Z,27.37
2019-02-28T07:15:24.844Z,24.35
2019-02-28T07:17:53.721Z,24.92
2019-02-28T07:20:24.324Z,25.20
2019-02-28T07:22:55.792Z,24.98
2019-02-28T07:25:26.517Z,25.20
2019-02-28T07:27:57.044Z,28.98
2019-02-28T07:30:27.848Z,24.98
2019-02-28T07:32:58.612Z,26.30
2019-02-28T07:35:32.874Z,28.23
2019-02-28T07:38:01.484Z,25.92
2019-02-28T07:40:33.298Z,26.02
2019-02-28T07:43:59.028Z,26.00
2019-02-28T07:46:29.953Z,26.30
2019-02-28T07:49:01.679Z,26.42
2019-02-28T07:51:33.272Z,29.55
2019-02-28T07:54:04.408Z,29.80
2019-02-28T07:56:35.050Z,27.70
2019-02-28T07:59:06.369Z,27.30
2019-02-28T08:43:40.383Z,24.92
2019-02-28T08:46:13.616Z,22.70
2019-02-28T08:48:42.877Z,23.47
2019-02-28T08:51:13.601Z,25.50
2019-02-28T08:53:44.257Z,23.18
2019-02-28T08:56:14.946Z,21.12
2019-02-28T08:58:45.789Z,25.15
2019-02-28T09:01:16.582Z,21.75
2019-02-28T09:03:47.172Z,27.10
2019-02-28T09:06:17.908Z,23.90
2019-02-28T09:08:48.470Z,29.30
2019-02-28T09:11:20.961Z,28.05
2019-02-28T09:13:51.204Z,21.27
2019-02-28T09:16:21.776Z,29.05
2019-02-28T09:18:52.353Z,24.20
2019-02-28T09:21:23.134Z,27.95
2019-02-28T09:23:54.019Z,21.95
2019-02-28T09:26:24.758Z,23.45
2019-02-28T09:28:55.548Z,21.15
2019-02-28T09:31:26.131Z,21.00
2019-02-28T09:34:27.149Z,22.35
2019-02-28T09:36:57.685Z,20.48
2019-02-28T09:39:28.213Z,23.02
2019-02-28T09:41:58.924Z,24.87
2019-02-28T09:44:31.574Z,25.05
2019-02-28T09:47:02.332Z,24.63
2019-02-28T09:49:32.901Z,22.67
2019-02-28T09:52:06.440Z,24.65
2019-02-28T09:54:35.682Z,22.45
2019-02-28T09:57:06.347Z,17.87
2019-02-28T09:59:37.677Z,22.62
2019-02-28T10:02:54.312Z,18.15
2019-02-28T10:05:32.233Z,24.57
2019-02-28T10:08:03.124Z,22.48
2019-02-28T10:10:34.274Z,21.37
2019-02-28T10:13:14.516Z,22.93
2019-02-28T10:15:44.241Z,17.37
2019-02-28T10:18:14.786Z,21.50
2019-02-28T10:20:45.696Z,24.90
2019-02-28T10:23:18.346Z,22.52
2019-02-28T10:25:48.264Z,21.65
2019-02-28T10:28:19.029Z,18.23
2019-02-28T10:30:50.181Z,22.25
2019-02-28T10:33:21.351Z,27.82
2019-02-28T10:35:52.146Z,22.98
2019-02-28T10:38:22.727Z,18.30
2019-02-28T10:40:53.330Z,18.20
2019-02-28T10:43:24.226Z,21.25
2019-02-28T10:45:57.637Z,21.60
2019-02-28T10:48:50.223Z,19.23
2019-02-28T10:51:13.948Z,23.32
2019-02-28T10:54:11.237Z,21.93
2019-02-28T10:56:40.564Z,22.35
2019-02-28T10:59:11.201Z,20.32
2019-02-28T11:01:42.649Z,19.42
2019-02-28T11:04:13.383Z,21.17
2019-02-28T11:06:43.925Z,23.10
2019-02-28T11:09:34.816Z,20.97
2019-02-28T11:12:25.960Z,24.00
2019-02-28T11:14:56.610Z,20.52
2019-02-28T11:17:27.212Z,20.95
2019-02-28T11:19:57.740Z,21.48
2019-02-28T11:22:47.634Z,21.25
2019-02-28T11:25:18.637Z,28.10
2019-02-28T11:27:49.168Z,24.40
2019-02-28T11:30:21.785Z,24.50
2019-02-28T11:32:52.279Z,25.77
2019-02-28T11:35:23.243Z,23.87
2019-02-28T11:37:54.668Z,21.57
2019-02-28T11:40:26.329Z,20.05
2019-02-28T11:42:59.471Z,24.87
2019-02-28T11:45:30.809Z,25.50
2019-02-28T11:48:03.508Z,23.95
2019-02-28T11:50:34.254Z,26.55
2019-02-28T11:53:06.018Z,23.02
2019-02-28T11:55:36.715Z,21.77
2019-02-28T11:58:07.412Z,26.35
2019-02-28T12:00:41.764Z,25.88
2019-02-28T12:03:12.573Z,25.15
2019-02-28T12:05:43.144Z,28.12
2019-02-28T12:08:13.666Z,30.57
2019-02-28T12:10:44.469Z,29.48
2019-02-28T12:13:20.467Z,25.88
2019-02-28T12:16:11.529Z,24.37
2019-02-28T12:18:42.081Z,25.57
2019-02-28T12:21:12.637Z,23.98
2019-02-28T12:23:43.240Z,28.12
2019-02-28T12:26:14.396Z,24.65
2019-02-28T12:28:45.764Z,23.75
2019-02-28T12:31:16.424Z,22.62
2019-02-28T12:33:49.242Z,26.75
2019-02-28T12:36:19.993Z,25.80
2019-02-28T12:38:50.546Z,26.57
2019-02-28T12:41:21.685Z,27.25
2019-02-28T12:43:55.354Z,24.70
2019-02-28T12:46:26.140Z,23.32
2019-02-28T12:48:57.386Z,25.82
2019-02-28T12:51:28.100Z,24.57
2019-02-28T12:53:59.179Z,25.72
2019-02-28T12:56:30.625Z,25.70
2019-02-28T12:59:01.344Z,23.92
2019-02-28T13:01:33.141Z,23.67
2019-02-28T13:04:22.757Z,25.15
2019-02-28T13:06:55.532Z,25.55
2019-02-28T13:09:25.602Z,22.30
2019-02-28T13:11:56.497Z,19.98
2019-02-28T13:14:27.095Z,21.62
2019-02-28T13:16:58.268Z,23.02
2019-02-28T13:19:53.123Z,22.13
2019-02-28T13:22:23.630Z,26.02
2019-02-28T13:24:53.643Z,25.57
2019-02-28T13:27:24.400Z,21.65
2019-02-28T13:29:55.203Z,23.27
2019-02-28T13:32:25.787Z,21.90
2019-02-28T13:34:56.505Z,24.40
2019-02-28T13:37:27.177Z,22.55
2019-02-28T13:40:18.782Z,26.25
2019-02-28T13:43:09.786Z,24.75
2019-02-28T13:45:40.317Z,24.57
2019-02-28T13:48:10.937Z,23.65
2019-02-28T13:50:59.366Z,21.95
2019-02-28T13:53:45.138Z,22.35
2019-02-28T13:56:17.953Z,20.90
2019-02-28T13:58:50.047Z,21.10
2019-02-28T14:01:20.395Z,21.68
2019-02-28T14:04:06.469Z,21.07
2019-02-28T14:06:37.965Z,21.25
2019-02-28T14:09:08.635Z,23.35
2019-02-28T14:11:51.965Z,28.85
2019-02-28T14:14:22.679Z,25.60
2019-02-28T14:16:53.354Z,27.77
2019-02-28T14:19:24.685Z,25.65
2019-02-28T14:21:55.420Z,25.48
2019-02-28T14:24:27.594Z,27.00
2019-02-28T14:26:58.265Z,22.40
2019-02-28T14:29:30.235Z,22.00
2019-02-28T14:32:20.233Z,26.45
2019-02-28T14:34:50.807Z,25.85
2019-02-28T14:37:21.301Z,23.07
2019-02-28T14:39:52.035Z,25.12
2019-02-28T14:42:22.547Z,25.55
2019-02-28T14:44:53.144Z,22.07
2019-02-28T14:47:24.946Z,22.52
2019-02-28T14:49:55.736Z,24.52
2019-02-28T14:52:27.104Z,22.40
2019-02-28T14:54:58.336Z,23.90
2019-02-28T14:57:28.981Z,22.05
2019-02-28T15:00:00.077Z,26.20
2019-02-28T15:02:30.889Z,23.02
2019-02-28T15:05:04.158Z,24.02
2019-02-28T15:07:35.268Z,25.70
2019-02-28T15:10:09.604Z,23.67
2019-02-28T15:12:40.417Z,25.77
2019-02-28T15:15:14.890Z,26.17
2019-02-28T15:17:46.183Z,25.13
2019-02-28T15:20:16.857Z,22.20
2019-02-28T15:22:47.353Z,22.10
2019-02-28T15:25:25.010Z,22.22
2019-02-28T15:27:57.338Z,21.57
2019-02-28T15:30:36.350Z,26.75
2019-02-28T15:33:06.997Z,25.52
2019-02-28T15:35:37.542Z,26.27
2019-02-28T15:38:09.230Z,28.83
2019-02-28T15:40:42.290Z,26.57
2019-02-28T15:43:18.176Z,27.40
2019-02-28T15:45:49.021Z,23.47
2019-02-28T15:48:19.925Z,26.97
2019-02-28T15:50:51.827Z,25.20
2019-02-28T15:53:23.273Z,28.52
2019-02-28T15:55:53.836Z,23.32
2019-02-28T15:58:24.413Z,27.42
2019-02-28T16:00:56.554Z,27.22
2019-02-28T16:03:27.203Z,25.72
2019-02-28T16:05:57.673Z,26.45
2019-02-28T16:08:28.604Z,27.02
2019-02-28T16:10:59.399Z,30.40
2019-02-28T16:13:30.047Z,27.27
2019-02-28T16:16:00.723Z,29.23
2019-02-28T16:18:31.402Z,32.08
2019-02-28T16:21:03.492Z,30.37
2019-02-28T16:23:34.086Z,30.37
2019-02-28T16:26:05.567Z,27.05
2019-02-28T16:28:36.198Z,28.80
2019-02-28T16:31:07.541Z,34.50
2019-02-28T16:33:38.185Z,27.30
2019-02-28T16:36:08.880Z,30.02
2019-02-28T16:38:42.369Z,38.08
2019-02-28T16:41:11.685Z,28.87
2019-02-28T16:44:11.523Z,30.12
2019-02-28T16:46:42.207Z,28.73
2019-02-28T16:49:12.774Z,31.42
2019-02-28T16:51:43.297Z,26.82
2019-02-28T16:54:14.634Z,29.00
2019-02-28T16:56:45.306Z,31.65
2019-02-28T16:59:15.936Z,29.40
2019-02-28T17:01:47.094Z,28.42
2019-02-28T17:04:18.082Z,35.78
2019-02-28T17:06:48.863Z,29.85
2019-02-28T17:09:21.248Z,31.02
2019-02-28T17:11:53.245Z,25.23
2019-02-28T17:14:23.804Z,35.90
2019-02-28T17:16:59.382Z,32.63
2019-02-28T17:19:49.176Z,31.10
2019-02-28T17:22:19.857Z,32.45
2019-02-28T17:24:50.400Z,33.35
2019-02-28T17:27:22.267Z,30.70
2019-02-28T17:29:54.376Z,27.52
2019-02-28T17:32:27.986Z,28.67
2019-02-28T17:34:59.001Z,28.20
2019-02-28T17:37:29.305Z,26.95
2019-02-28T17:39:59.861Z,29.20
2019-02-28T17:42:30.411Z,28.77
2019-02-28T17:45:06.784Z,33.02
2019-02-28T17:47:48.482Z,30.68
2019-02-28T17:50:30.719Z,33.55
2019-02-28T17:53:25.144Z,31.40
2019-02-28T17:56:22.609Z,28.30
2019-02-28T17:58:49.057Z,32.40
2019-02-28T18:01:40.478Z,30.50
2019-02-28T18:04:16.805Z,30.48
2019-02-28T18:06:55.621Z,31.60
2019-02-28T18:09:32.233Z,27.27
2019-02-28T18:12:06.015Z,27.82
2019-02-28T18:14:58.558Z,29.85
2019-02-28T18:17:52.834Z,27.67
2019-02-28T18:20:52.747Z,25.95
2019-02-28T18:23:31.536Z,28.17
2019-02-28T18:26:16.429Z,28.00
2019-02-28T18:28:54.840Z,27.87
2019-02-28T18:31:24.899Z,29.57
2019-02-28T18:33:57.411Z,28.10
2019-02-28T18:36:29.681Z,27.05
2019-02-28T18:39:00.681Z,29.50
2019-02-28T18:41:31.317Z,27.62
2019-02-28T18:44:03.634Z,27.27
2019-02-28T18:46:34.041Z,29.45
2019-02-28T18:49:04.587Z,28.90
2019-02-28T18:51:35.084Z,26.68
2019-02-28T18:54:05.810Z,29.98
2019-02-28T18:56:37.081Z,27.52
2019-02-28T18:59:07.642Z,24.70
2019-02-28T19:01:38.327Z,29.25
2019-02-28T19:04:16.872Z,26.30
2019-02-28T19:07:07.806Z,26.07
2019-02-28T19:09:38.416Z,26.42
2019-02-28T19:12:08.945Z,33.35
2019-02-28T19:14:39.588Z,26.33
2019-02-28T19:17:10.100Z,27.73
2019-02-28T19:19:40.633Z,29.30
2019-02-28T19:22:11.349Z,31.87
2019-02-28T19:24:41.909Z,30.27
2019-02-28T19:27:12.537Z,30.52
2019-02-28T19:29:43.802Z,26.82
2019-02-28T19:32:14.563Z,26.73
2019-02-28T19:34:45.909Z,29.05
2019-02-28T19:37:16.680Z,33.73
2019-02-28T19:39:47.212Z,28.38
2019-02-28T19:42:17.873Z,29.20
2019-02-28T19:44:48.737Z,31.33
2019-02-28T19:47:19.238Z,30.75
2019-02-28T19:49:49.776Z,30.35
2019-02-28T19:52:20.582Z,29.00
2019-02-28T19:54:51.244Z,28.95
2019-02-28T19:57:22.494Z,31.85
2019-02-28T19:59:53.197Z,30.17
2019-02-28T20:02:23.771Z,26.45
2019-02-28T20:04:54.289Z,30.65
2019-02-28T20:07:24.980Z,33.02
2019-02-28T20:09:55.656Z,31.20
2019-02-28T20:12:26.201Z,31.45
2019-02-28T20:14:58.257Z,29.07
2019-02-28T20:17:28.783Z,29.77
2019-02-28T20:19:59.391Z,34.23
2019-02-28T20:22:30.126Z,30.10
2019-02-28T20:25:00.857Z,31.77
2019-02-28T20:30:23.353Z,31.97
2019-02-28T20:32:53.986Z,29.70
2019-02-28T20:35:26.893Z,28.30
2019-02-28T20:37:56.607Z,29.15
2019-02-28T20:40:34.850Z,30.97
2019-02-28T20:43:05.595Z,29.00
2019-02-28T20:45:36.165Z,28.27
2019-02-28T20:48:06.696Z,28.67
2019-02-28T20:50:42.969Z,26.07
2019-02-28T20:53:13.689Z,27.02
2019-02-28T20:55:44.225Z,28.30
2019-02-28T20:58:16.117Z,29.77
2019-02-28T21:00:46.815Z,31.57
2019-02-28T21:03:17.362Z,28.35
2019-02-28T21:05:48.077Z,26.42
2019-02-28T21:08:18.620Z,25.85
2019-02-28T21:10:49.161Z,29.55
2019-02-28T21:13:19.848Z,28.52
2019-02-28T21:15:50.516Z,27.48
2019-02-28T21:18:21.762Z,26.48
2019-02-28T21:20:52.467Z,28.57
2019-02-28T21:23:23.028Z,27.55
2019-02-28T21:25:53.573Z,26.65
2019-02-28T21:28:24.260Z,29.77
2019-02-28T21:30:54.833Z,26.82
2019-02-28T21:33:25.465Z,27.35
2019-02-28T21:35:56.167Z,26.52
2019-02-28T21:38:26.725Z,33.30
2019-02-28T21:40:57.270Z,28.30
2019-02-28T21:44:25.351Z,29.95
2019-02-28T21:47:16.340Z,26.42
2019-02-28T21:49:47.151Z,26.70
2019-02-28T21:52:17.716Z,29.85
2019-02-28T21:54:48.330Z,26.73
2019-02-28T21:57:19.120Z,29.25
2019-02-28T21:59:50.561Z,29.50
2019-02-28T22:02:21.183Z,27.67
2019-02-28T22:04:51.975Z,31.77
2019-02-28T22:07:22.546Z,29.35
2019-02-28T22:09:53.167Z,30.30
2019-02-28T22:12:23.977Z,29.65
2019-02-28T22:14:54.649Z,30.95
2019-02-28T22:17:25.194Z,30.48
2019-02-28T22:19:55.848Z,33.42
2019-02-28T22:22:26.555Z,33.50
2019-02-28T22:24:57.296Z,30.40
2019-02-28T22:27:28.058Z,35.68
2019-02-28T22:30:00.182Z,30.37
2019-02-28T22:32:32.628Z,31.37
2019-02-28T22:35:04.801Z,33.28
2019-02-28T22:37:35.629Z,30.25
2019-02-28T22:40:13.587Z,30.82
2019-02-28T22:42:44.629Z,33.48
2019-02-28T22:45:15.350Z,28.35
2019-02-28T22:47:46.061Z,28.42
2019-02-28T22:50:16.637Z,28.27
2019-02-28T22:52:47.263Z,31.45
2019-02-28T22:55:17.948Z,30.20
2019-02-28T22:57:48.528Z,32.78
2019-02-28T23:00:41.177Z,31.80
2019-02-28T23:03:11.800Z,27.90
2019-02-28T23:05:42.333Z,33.18
2019-02-28T23:08:13.021Z,30.08
2019-02-28T23:10:43.627Z,27.80
2019-02-28T23:13:14.228Z,31.35
2019-02-28T23:15:44.937Z,28.38
2019-02-28T23:18:15.494Z,27.60
2019-02-28T23:20:46.120Z,33.45
2019-02-28T23:23:16.831Z,31.40
2019-02-28T23:26:34.818Z,33.02
2019-02-28T23:29:08.170Z,33.65
2019-02-28T23:31:58.515Z,32.17
2019-02-28T23:34:34.771Z,28.98
2019-02-28T23:37:05.321Z,29.87
2019-02-28T23:39:35.911Z,33.78
2019-02-28T23:42:06.779Z,30.68
2019-02-28T23:44:37.483Z,34.65
2019-02-28T23:47:08.001Z,34.33
2019-02-28T23:49:38.699Z,33.13
2019-02-28T23:52:09.297Z,35.75
2019-02-28T23:54:39.826Z,29.87
2019-02-28T23:57:10.533Z,31.85
2019-02-28T23:59:41.165Z,34.00
